sensor_id;sensor_type;location;lat;lon;timestamp;pressure;altitude;pressure_sealevel;temperature;humidity
42511;BME280;28141;51.120;17.114;2023-04-30T00:02:04;101775.35;;;25.81;34.23
42511;BME280;28141;51.120;17.114;2023-04-30T00:05:18;101777.45;;;25.86;33.99
42511;BME280;28141;51.120;17.114;2023-04-30T00:08:32;101776.59;;;25.85;34.10
42511;BME280;28141;51.120;17.114;2023-04-30T00:12:12;101781.07;;;25.86;34.27
42511;BME280;28141;51.120;17.114;2023-04-30T00:15:26;101778.76;;;25.83;34.27
42511;BME280;28141;51.120;17.114;2023-04-30T00:18:40;101782.19;;;25.78;34.28
42511;BME280;28141;51.120;17.114;2023-04-30T00:21:54;101779.20;;;25.80;34.12
42511;BME280;28141;51.120;17.114;2023-04-30T00:25:34;101784.53;;;25.81;34.32
42511;BME280;28141;51.120;17.114;2023-04-30T00:28:48;101792.01;;;25.81;34.20
42511;BME280;28141;51.120;17.114;2023-04-30T00:32:02;101783.89;;;25.79;34.33
42511;BME280;28141;51.120;17.114;2023-04-30T00:35:16;101793.72;;;25.82;34.12
42511;BME280;28141;51.120;17.114;2023-04-30T00:38:54;101802.48;;;25.79;34.25
42511;BME280;28141;51.120;17.114;2023-04-30T00:42:09;101805.48;;;25.77;33.78
42511;BME280;28141;51.120;17.114;2023-04-30T00:45:23;101798.42;;;25.75;33.86
42511;BME280;28141;51.120;17.114;2023-04-30T00:48:37;101805.08;;;25.74;34.15
42511;BME280;28141;51.120;17.114;2023-04-30T00:52:16;101811.70;;;25.73;34.29
42511;BME280;28141;51.120;17.114;2023-04-30T00:55:30;101810.42;;;25.69;34.09
42511;BME280;28141;51.120;17.114;2023-04-30T00:58:44;101813.20;;;25.69;34.19
42511;BME280;28141;51.120;17.114;2023-04-30T01:01:59;101817.69;;;25.70;34.18
42511;BME280;28141;51.120;17.114;2023-04-30T01:05:38;101823.03;;;25.65;34.36
42511;BME280;28141;51.120;17.114;2023-04-30T01:08:53;101828.36;;;25.66;33.96
42511;BME280;28141;51.120;17.114;2023-04-30T01:12:15;101822.81;;;25.66;34.24
42511;BME280;28141;51.120;17.114;2023-04-30T01:26:52;101830.74;;;25.63;34.60
42511;BME280;28141;51.120;17.114;2023-04-30T01:30:11;101833.91;;;25.60;34.56
42511;BME280;28141;51.120;17.114;2023-04-30T01:33:51;101842.70;;;25.63;34.38
42511;BME280;28141;51.120;17.114;2023-04-30T01:40:42;101843.98;;;25.61;34.65
42511;BME280;28141;51.120;17.114;2023-04-30T01:51:42;101841.20;;;25.61;34.34
42511;BME280;28141;51.120;17.114;2023-04-30T01:55:11;101844.16;;;25.59;34.36
42511;BME280;28141;51.120;17.114;2023-04-30T01:58:27;101843.77;;;25.62;34.43
42511;BME280;28141;51.120;17.114;2023-04-30T02:01:42;101846.30;;;25.64;34.37
42511;BME280;28141;51.120;17.114;2023-04-30T02:05:23;101849.07;;;25.57;34.28
42511;BME280;28141;51.120;17.114;2023-04-30T02:08:38;101847.16;;;25.58;34.48
42511;BME280;28141;51.120;17.114;2023-04-30T02:11:52;101855.27;;;25.59;34.29
42511;BME280;28141;51.120;17.114;2023-04-30T02:15:07;101854.41;;;25.59;34.41
42511;BME280;28141;51.120;17.114;2023-04-30T02:18:46;101868.49;;;25.57;34.29
42511;BME280;28141;51.120;17.114;2023-04-30T02:22:00;101865.33;;;25.60;34.33
42511;BME280;28141;51.120;17.114;2023-04-30T02:25:14;101868.53;;;25.51;34.30
42511;BME280;28141;51.120;17.114;2023-04-30T02:28:28;101874.50;;;25.48;34.36
42511;BME280;28141;51.120;17.114;2023-04-30T02:32:06;101870.02;;;25.46;34.40
42511;BME280;28141;51.120;17.114;2023-04-30T02:35:21;101873.23;;;25.43;34.45
42511;BME280;28141;51.120;17.114;2023-04-30T02:38:35;101872.37;;;25.43;34.51
42511;BME280;28141;51.120;17.114;2023-04-30T02:41:49;101865.99;;;25.36;34.36
42511;BME280;28141;51.120;17.114;2023-04-30T02:45:27;101885.62;;;25.34;34.53
42511;BME280;28141;51.120;17.114;2023-04-30T02:48:41;101872.82;;;25.33;34.76
42511;BME280;28141;51.120;17.114;2023-04-30T02:51:55;101881.81;;;25.29;34.80
42511;BME280;28141;51.120;17.114;2023-04-30T02:55:09;101882.02;;;25.27;34.50
42511;BME280;28141;51.120;17.114;2023-04-30T02:58:47;101890.33;;;25.21;34.65
42511;BME280;28141;51.120;17.114;2023-04-30T03:02:01;101890.78;;;25.18;34.91
42511;BME280;28141;51.120;17.114;2023-04-30T03:05:16;101888.44;;;25.15;35.04
42511;BME280;28141;51.120;17.114;2023-04-30T03:08:29;101898.25;;;25.17;34.90
42511;BME280;28141;51.120;17.114;2023-04-30T03:12:08;101901.66;;;25.13;34.75
42511;BME280;28141;51.120;17.114;2023-04-30T03:15:22;101898.90;;;25.06;34.79
42511;BME280;28141;51.120;17.114;2023-04-30T03:18:35;101912.55;;;25.07;34.97
42511;BME280;28141;51.120;17.114;2023-04-30T03:21:53;101912.13;;;25.04;35.07
42511;BME280;28141;51.120;17.114;2023-04-30T03:25:31;101917.24;;;25.07;34.81
42511;BME280;28141;51.120;17.114;2023-04-30T03:28:45;101917.66;;;25.04;34.87
42511;BME280;28141;51.120;17.114;2023-04-30T03:31:59;101916.61;;;24.98;35.20
42511;BME280;28141;51.120;17.114;2023-04-30T03:35:13;101925.13;;;24.97;34.76
42511;BME280;28141;51.120;17.114;2023-04-30T03:38:53;101933.19;;;24.92;34.89
42511;BME280;28141;51.120;17.114;2023-04-30T03:42:07;101930.42;;;24.92;34.76
42511;BME280;28141;51.120;17.114;2023-04-30T03:45:21;101936.63;;;24.94;34.79
42511;BME280;28141;51.120;17.114;2023-04-30T03:48:34;101942.98;;;24.88;34.87
42511;BME280;28141;51.120;17.114;2023-04-30T03:52:14;101949.63;;;24.87;34.93
42511;BME280;28141;51.120;17.114;2023-04-30T03:55:28;101942.56;;;24.91;34.98
42511;BME280;28141;51.120;17.114;2023-04-30T03:58:42;101953.65;;;24.91;34.90
42511;BME280;28141;51.120;17.114;2023-04-30T04:01:56;101954.72;;;24.83;34.94
42511;BME280;28141;51.120;17.114;2023-04-30T04:05:36;101967.31;;;24.86;34.92
42511;BME280;28141;51.120;17.114;2023-04-30T04:08:50;101970.08;;;24.86;34.73
42511;BME280;28141;51.120;17.114;2023-04-30T04:12:04;101973.06;;;24.84;35.03
42511;BME280;28141;51.120;17.114;2023-04-30T04:15:18;101974.77;;;24.85;34.81
42511;BME280;28141;51.120;17.114;2023-04-30T04:18:57;101995.23;;;24.84;34.89
42511;BME280;28141;51.120;17.114;2023-04-30T04:22:10;101990.51;;;24.78;35.02
42511;BME280;28141;51.120;17.114;2023-04-30T04:25:25;101990.51;;;24.78;34.91
42511;BME280;28141;51.120;17.114;2023-04-30T04:28:40;101996.30;;;24.77;35.07
42511;BME280;28141;51.120;17.114;2023-04-30T04:32:19;101997.36;;;24.82;34.89
42511;BME280;28141;51.120;17.114;2023-04-30T04:35:35;102001.63;;;24.85;34.68
42511;BME280;28141;51.120;17.114;2023-04-30T04:38:50;102006.73;;;24.88;34.84
42511;BME280;28141;51.120;17.114;2023-04-30T04:42:04;102009.50;;;24.88;34.85
42511;BME280;28141;51.120;17.114;2023-04-30T04:45:43;102017.40;;;24.91;34.68
42511;BME280;28141;51.120;17.114;2023-04-30T04:48:58;102012.27;;;24.88;34.67
42511;BME280;28141;51.120;17.114;2023-04-30T04:52:11;102030.20;;;24.85;34.92
42511;BME280;28141;51.120;17.114;2023-04-30T04:55:25;102037.02;;;24.83;34.76
42511;BME280;28141;51.120;17.114;2023-04-30T04:59:04;102034.04;;;24.84;34.66
42511;BME280;28141;51.120;17.114;2023-04-30T05:02:18;102036.40;;;24.87;34.65
42511;BME280;28141;51.120;17.114;2023-04-30T05:05:32;102041.09;;;24.87;34.47
42511;BME280;28141;51.120;17.114;2023-04-30T05:08:45;102045.54;;;24.88;34.18
42511;BME280;28141;51.120;17.114;2023-04-30T05:12:24;102052.80;;;24.89;34.59
42511;BME280;28141;51.120;17.114;2023-04-30T05:15:38;102053.45;;;24.91;34.67
42511;BME280;28141;51.120;17.114;2023-04-30T05:18:51;102048.17;;;24.96;34.59
42511;BME280;28141;51.120;17.114;2023-04-30T05:22:05;102057.99;;;24.98;34.56
42511;BME280;28141;51.120;17.114;2023-04-30T05:25:44;102060.32;;;24.95;34.37
42511;BME280;28141;51.120;17.114;2023-04-30T05:28:58;102061.83;;;24.97;34.34
42511;BME280;28141;51.120;17.114;2023-04-30T05:32:12;102049.82;;;24.90;34.44
42511;BME280;28141;51.120;17.114;2023-04-30T05:35:25;102069.91;;;24.99;34.47
42511;BME280;28141;51.120;17.114;2023-04-30T05:39:04;102076.34;;;25.06;34.27
42511;BME280;28141;51.120;17.114;2023-04-30T05:42:19;102069.94;;;25.05;34.31
42511;BME280;28141;51.120;17.114;2023-04-30T05:45:33;102069.09;;;25.12;34.42
42511;BME280;28141;51.120;17.114;2023-04-30T05:48:47;102072.09;;;25.17;34.41
42511;BME280;28141;51.120;17.114;2023-04-30T05:52:27;102083.38;;;25.15;34.11
42511;BME280;28141;51.120;17.114;2023-04-30T05:55:41;102076.38;;;25.19;34.08
42511;BME280;28141;51.120;17.114;2023-04-30T05:58:54;102078.91;;;25.21;33.83
42511;BME280;28141;51.120;17.114;2023-04-30T06:02:09;102086.16;;;25.22;34.29
42511;BME280;28141;51.120;17.114;2023-04-30T06:05:47;102094.71;;;25.27;33.96
42511;BME280;28141;51.120;17.114;2023-04-30T06:09:01;102090.23;;;25.26;33.81
42511;BME280;28141;51.120;17.114;2023-04-30T06:12:15;102092.80;;;25.27;34.01
42511;BME280;28141;51.120;17.114;2023-04-30T06:15:29;102105.16;;;25.31;33.84
42511;BME280;28141;51.120;17.114;2023-04-30T06:19:08;102096.43;;;25.34;33.80
42511;BME280;28141;51.120;17.114;2023-04-30T06:22:22;102104.99;;;25.39;33.65
42511;BME280;28141;51.120;17.114;2023-04-30T06:25:36;102097.73;;;25.38;33.65
42511;BME280;28141;51.120;17.114;2023-04-30T06:28:50;102114.58;;;25.43;33.72
42511;BME280;28141;51.120;17.114;2023-04-30T06:32:28;102109.26;;;25.49;33.60
42511;BME280;28141;51.120;17.114;2023-04-30T06:35:43;102099.01;;;25.56;33.48
42511;BME280;28141;51.120;17.114;2023-04-30T06:38:56;102120.35;;;25.55;33.46
42511;BME280;28141;51.120;17.114;2023-04-30T06:42:10;102117.63;;;25.62;33.10
42511;BME280;28141;51.120;17.114;2023-04-30T06:45:49;102116.12;;;25.66;33.35
42511;BME280;28141;51.120;17.114;2023-04-30T06:49:03;102116.12;;;25.66;33.19
42511;BME280;28141;51.120;17.114;2023-04-30T06:52:18;102112.29;;;25.67;33.30
42511;BME280;28141;51.120;17.114;2023-04-30T06:55:32;102115.08;;;25.73;33.20
42511;BME280;28141;51.120;17.114;2023-04-30T06:59:12;102118.91;;;25.79;33.13
42511;BME280;28141;51.120;17.114;2023-04-30T07:02:25;102124.45;;;25.79;33.26
42511;BME280;28141;51.120;17.114;2023-04-30T07:05:40;102132.36;;;25.82;32.89
42511;BME280;28141;51.120;17.114;2023-04-30T07:08:54;102130.66;;;25.81;32.76
42511;BME280;28141;51.120;17.114;2023-04-30T07:12:35;102138.33;;;25.79;32.97
42511;BME280;28141;51.120;17.114;2023-04-30T07:15:50;102134.91;;;25.77;32.95
42511;BME280;28141;51.120;17.114;2023-04-30T07:19:04;102139.39;;;25.78;32.86
42511;BME280;28141;51.120;17.114;2023-04-30T07:22:19;102141.11;;;25.79;32.87
42511;BME280;28141;51.120;17.114;2023-04-30T07:25:59;102140.05;;;25.80;32.91
42511;BME280;28141;51.120;17.114;2023-04-30T07:29:13;102132.36;;;25.82;32.88
42511;BME280;28141;51.120;17.114;2023-04-30T07:32:27;102136.01;;;25.83;32.56
42511;BME280;28141;51.120;17.114;2023-04-30T07:35:41;102146.45;;;25.87;32.87
42511;BME280;28141;51.120;17.114;2023-04-30T07:39:21;102157.55;;;25.87;32.79
42511;BME280;28141;51.120;17.114;2023-04-30T07:42:35;102149.03;;;25.95;32.93
42511;BME280;28141;51.120;17.114;2023-04-30T07:45:49;102150.07;;;26.01;32.36
42511;BME280;28141;51.120;17.114;2023-04-30T07:49:05;102148.99;;;26.08;32.74
42511;BME280;28141;51.120;17.114;2023-04-30T07:52:48;102159.70;;;26.05;32.47
42511;BME280;28141;51.120;17.114;2023-04-30T07:56:03;102156.27;;;26.16;32.43
42511;BME280;28141;51.120;17.114;2023-04-30T07:59:17;102165.22;;;26.18;32.61
42511;BME280;28141;51.120;17.114;2023-04-30T08:02:33;102163.32;;;26.12;32.15
42511;BME280;28141;51.120;17.114;2023-04-30T08:06:15;102167.15;;;26.11;32.19
42511;BME280;28141;51.120;17.114;2023-04-30T08:09:29;102176.99;;;26.13;32.10
42511;BME280;28141;51.120;17.114;2023-04-30T08:12:43;102174.62;;;26.24;32.33
42511;BME280;28141;51.120;17.114;2023-04-30T08:15:57;102175.09;;;26.27;31.93
42511;BME280;28141;51.120;17.114;2023-04-30T08:19:38;102172.49;;;26.26;32.06
42511;BME280;28141;51.120;17.114;2023-04-30T08:22:52;102168.43;;;26.22;32.13
42511;BME280;28141;51.120;17.114;2023-04-30T08:26:06;102167.38;;;26.16;31.83
42511;BME280;28141;51.120;17.114;2023-04-30T08:29:20;102174.62;;;26.24;32.07
42511;BME280;28141;51.120;17.114;2023-04-30T08:33:00;102180.41;;;26.29;31.94
42511;BME280;28141;51.120;17.114;2023-04-30T08:36:14;102177.41;;;26.30;31.67
42511;BME280;28141;51.120;17.114;2023-04-30T08:39:28;102174.22;;;26.33;31.68
42511;BME280;28141;51.120;17.114;2023-04-30T08:42:45;102170.80;;;26.38;31.99
42511;BME280;28141;51.120;17.114;2023-04-30T08:46:33;102169.49;;;26.47;31.78
42511;BME280;28141;51.120;17.114;2023-04-30T08:49:49;102173.74;;;26.56;31.45
42511;BME280;28141;51.120;17.114;2023-04-30T08:53:04;102181.20;;;26.69;31.67
42511;BME280;28141;51.120;17.114;2023-04-30T08:56:20;102175.35;;;26.83;31.42
42511;BME280;28141;51.120;17.114;2023-04-30T09:00:00;102181.38;;;26.80;31.28
42511;BME280;28141;51.120;17.114;2023-04-30T09:03:14;102176.20;;;26.84;31.40
42511;BME280;28141;51.120;17.114;2023-04-30T09:06:28;102183.69;;;26.90;31.14
42511;BME280;28141;51.120;17.114;2023-04-30T09:09:43;102184.34;;;26.85;31.08
42511;BME280;28141;51.120;17.114;2023-04-30T09:13:23;102186.06;;;26.93;30.90
42511;BME280;28141;51.120;17.114;2023-04-30T09:16:46;102170.22;;;26.87;30.35
42511;BME280;28141;51.120;17.114;2023-04-30T09:20:10;102186.94;;;26.80;30.51
42511;BME280;28141;51.120;17.114;2023-04-30T09:23:55;102192.03;;;26.83;30.84
42511;BME280;28141;51.120;17.114;2023-04-30T09:27:16;102193.96;;;26.83;30.68
42511;BME280;28141;51.120;17.114;2023-04-30T09:30:30;102200.80;;;26.87;30.71
42511;BME280;28141;51.120;17.114;2023-04-30T09:34:14;102206.36;;;26.94;30.72
42511;BME280;28141;51.120;17.114;2023-04-30T09:37:37;102208.06;;;27.01;30.39
42511;BME280;28141;51.120;17.114;2023-04-30T09:40:51;102201.44;;;27.02;30.95
42511;BME280;28141;51.120;17.114;2023-04-30T09:44:05;102193.95;;;26.96;30.40
42511;BME280;28141;51.120;17.114;2023-04-30T09:47:45;102194.55;;;27.05;30.53
42511;BME280;28141;51.120;17.114;2023-04-30T09:51:02;102191.16;;;27.03;30.47
42511;BME280;28141;51.120;17.114;2023-04-30T09:54:17;102194.16;;;27.01;29.63
42511;BME280;28141;51.120;17.114;2023-04-30T09:57:34;102185.35;;;27.04;30.27
42511;BME280;28141;51.120;17.114;2023-04-30T10:01:17;102196.89;;;27.08;30.33
42511;BME280;28141;51.120;17.114;2023-04-30T10:04:36;102179.55;;;27.12;29.91
42511;BME280;28141;51.120;17.114;2023-04-30T10:07:51;102181.66;;;27.17;29.87
42511;BME280;28141;51.120;17.114;2023-04-30T10:11:06;102179.51;;;27.19;30.57
42511;BME280;28141;51.120;17.114;2023-04-30T10:14:54;102180.15;;;27.21;30.32
42511;BME280;28141;51.120;17.114;2023-04-30T10:22:15;102170.73;;;27.22;30.15
42511;BME280;28141;51.120;17.114;2023-04-30T10:25:31;102175.87;;;27.25;30.31
42511;BME280;28141;51.120;17.114;2023-04-30T10:28:47;102178.39;;;27.26;30.47
42511;BME280;28141;51.120;17.114;2023-04-30T10:32:04;102182.50;;;27.24;30.10
42511;BME280;28141;51.120;17.114;2023-04-30T10:39:17;102170.51;;;27.23;30.29
42511;BME280;28141;51.120;17.114;2023-04-30T10:42:34;102168.38;;;27.25;29.97
42511;BME280;28141;51.120;17.114;2023-04-30T10:46:21;102146.35;;;27.17;30.05
42511;BME280;28141;51.120;17.114;2023-04-30T10:49:36;102171.32;;;27.31;29.96
42511;BME280;28141;51.120;17.114;2023-04-30T10:56:44;102161.46;;;27.35;30.00
42511;BME280;28141;51.120;17.114;2023-04-30T11:03:28;102156.06;;;27.40;29.78
42511;BME280;28141;51.120;17.114;2023-04-30T11:07:09;102155.18;;;27.46;29.93
42511;BME280;28141;51.120;17.114;2023-04-30T11:10:27;102156.70;;;27.42;29.63
42511;BME280;28141;51.120;17.114;2023-04-30T11:13:44;102158.82;;;27.46;29.70
42511;BME280;28141;51.120;17.114;2023-04-30T11:16:59;102154.12;;;27.40;29.55
42511;BME280;28141;51.120;17.114;2023-04-30T11:20:50;102153.05;;;27.41;29.51
42511;BME280;28141;51.120;17.114;2023-04-30T11:24:05;102151.77;;;27.44;29.74
42511;BME280;28141;51.120;17.114;2023-04-30T11:27:21;102154.49;;;27.50;29.79
42511;BME280;28141;51.120;17.114;2023-04-30T11:30:35;102157.28;;;27.57;29.24
42511;BME280;28141;51.120;17.114;2023-04-30T11:34:16;102153.59;;;27.63;29.57
42511;BME280;28141;51.120;17.114;2023-04-30T11:37:36;102159.78;;;27.65;29.02
42511;BME280;28141;51.120;17.114;2023-04-30T11:40:50;102158.23;;;27.69;29.67
42511;BME280;28141;51.120;17.114;2023-04-30T11:47:59;102157.98;;;27.77;29.27
42511;BME280;28141;51.120;17.114;2023-04-30T11:51:19;102151.89;;;27.87;29.30
42511;BME280;28141;51.120;17.114;2023-04-30T11:54:37;102148.66;;;27.90;28.97
42511;BME280;28141;51.120;17.114;2023-04-30T11:57:53;102149.45;;;27.97;29.65
42511;BME280;28141;51.120;17.114;2023-04-30T12:01:35;102155.77;;;28.11;28.99
42511;BME280;28141;51.120;17.114;2023-04-30T12:04:52;102161.47;;;28.22;29.17
42511;BME280;28141;51.120;17.114;2023-04-30T12:08:07;102150.64;;;28.32;28.74
42511;BME280;28141;51.120;17.114;2023-04-30T12:11:27;102154.12;;;28.46;28.92
42511;BME280;28141;51.120;17.114;2023-04-30T12:15:12;102158.24;;;28.62;28.31
42511;BME280;28141;51.120;17.114;2023-04-30T12:18:26;102157.87;;;28.77;27.99
42511;BME280;28141;51.120;17.114;2023-04-30T12:21:42;102159.20;;;28.92;28.13
42511;BME280;28141;51.120;17.114;2023-04-30T12:25:08;102158.22;;;29.17;27.64
42511;BME280;28141;51.120;17.114;2023-04-30T12:28:52;102153.98;;;29.44;26.79
42511;BME280;28141;51.120;17.114;2023-04-30T12:32:08;102145.29;;;29.64;27.24
42511;BME280;28141;51.120;17.114;2023-04-30T12:35:23;102144.99;;;29.84;26.69
42511;BME280;28141;51.120;17.114;2023-04-30T12:38:41;102135.53;;;30.08;27.71
42511;BME280;28141;51.120;17.114;2023-04-30T12:42:23;102144.54;;;30.33;26.79
42511;BME280;28141;51.120;17.114;2023-04-30T12:45:44;102148.03;;;30.52;27.07
42511;BME280;28141;51.120;17.114;2023-04-30T12:48:58;102132.23;;;30.69;26.95
42511;BME280;28141;51.120;17.114;2023-04-30T12:52:13;102133.39;;;30.85;26.61
42511;BME280;28141;51.120;17.114;2023-04-30T12:59:22;102133.11;;;31.10;26.95
42511;BME280;28141;51.120;17.114;2023-04-30T13:02:36;102136.54;;;31.29;26.80
42511;BME280;28141;51.120;17.114;2023-04-30T13:06:17;102133.86;;;31.50;26.07
42511;BME280;28141;51.120;17.114;2023-04-30T13:09:36;102133.58;;;31.64;25.82
42511;BME280;28141;51.120;17.114;2023-04-30T13:12:52;102131.04;;;31.79;25.83
42511;BME280;28141;51.120;17.114;2023-04-30T13:16:06;102126.88;;;31.98;25.72
42511;BME280;28141;51.120;17.114;2023-04-30T13:19:46;102124.04;;;32.15;25.49
42511;BME280;28141;51.120;17.114;2023-04-30T13:23:00;102132.73;;;32.30;25.34
42511;BME280;28141;51.120;17.114;2023-04-30T13:26:14;102122.30;;;32.47;24.79
42511;BME280;28141;51.120;17.114;2023-04-30T13:29:29;102122.85;;;32.66;24.90
42511;BME280;28141;51.120;17.114;2023-04-30T13:33:11;102128.41;;;32.83;24.78
42511;BME280;28141;51.120;17.114;2023-04-30T13:36:25;102114.84;;;32.96;24.24
42511;BME280;28141;51.120;17.114;2023-04-30T13:39:39;102116.95;;;33.11;24.80
42511;BME280;28141;51.120;17.114;2023-04-30T13:42:54;102114.09;;;33.28;24.22
42511;BME280;28141;51.120;17.114;2023-04-30T13:46:34;102121.27;;;33.46;24.30
42511;BME280;28141;51.120;17.114;2023-04-30T13:49:48;102107.96;;;33.63;24.01
42511;BME280;28141;51.120;17.114;2023-04-30T13:53:05;102114.57;;;33.79;24.17
42511;BME280;28141;51.120;17.114;2023-04-30T13:56:19;102109.61;;;33.91;23.80
42511;BME280;28141;51.120;17.114;2023-04-30T13:59:33;102111.13;;;34.08;23.52
42511;BME280;28141;51.120;17.114;2023-04-30T14:03:13;102109.62;;;34.28;23.55
42511;BME280;28141;51.120;17.114;2023-04-30T14:06:30;102111.96;;;34.46;23.30
42511;BME280;28141;51.120;17.114;2023-04-30T14:09:44;102101.91;;;34.60;23.03
42511;BME280;28141;51.120;17.114;2023-04-30T14:12:58;102101.99;;;34.75;22.94
42511;BME280;28141;51.120;17.114;2023-04-30T14:16:40;102099.23;;;34.91;22.94
42511;BME280;28141;51.120;17.114;2023-04-30T14:19:56;102098.16;;;35.12;22.39
42511;BME280;28141;51.120;17.114;2023-04-30T14:23:10;102092.55;;;35.22;22.38
42511;BME280;28141;51.120;17.114;2023-04-30T14:26:25;102091.20;;;35.35;22.65
42511;BME280;28141;51.120;17.114;2023-04-30T14:30:06;102092.02;;;35.50;22.42
42511;BME280;28141;51.120;17.114;2023-04-30T14:33:21;102073.98;;;35.72;22.12
42511;BME280;28141;51.120;17.114;2023-04-30T14:36:35;102083.88;;;35.84;22.14
42511;BME280;28141;51.120;17.114;2023-04-30T14:39:50;102091.48;;;35.99;22.16
42511;BME280;28141;51.120;17.114;2023-04-30T14:43:04;102086.94;;;36.08;22.05
42511;BME280;28141;51.120;17.114;2023-04-30T14:46:44;102086.38;;;36.22;21.73
42511;BME280;28141;51.120;17.114;2023-04-30T14:49:59;102084.38;;;36.32;21.63
42511;BME280;28141;51.120;17.114;2023-04-30T14:53:14;102087.97;;;36.48;21.47
42511;BME280;28141;51.120;17.114;2023-04-30T14:56:28;102089.34;;;36.61;21.44
42511;BME280;28141;51.120;17.114;2023-04-30T15:00:10;102087.91;;;36.73;21.26
42511;BME280;28141;51.120;17.114;2023-04-30T15:03:24;102083.27;;;36.92;21.30
42511;BME280;28141;51.120;17.114;2023-04-30T15:06:38;102079.81;;;37.06;21.45
42511;BME280;28141;51.120;17.114;2023-04-30T15:09:52;102086.23;;;37.21;21.15
42511;BME280;28141;51.120;17.114;2023-04-30T15:13:36;102085.85;;;37.33;20.84
42511;BME280;28141;51.120;17.114;2023-04-30T15:16:50;102083.50;;;37.45;21.04
42511;BME280;28141;51.120;17.114;2023-04-30T15:20:05;102074.34;;;37.58;20.56
42511;BME280;28141;51.120;17.114;2023-04-30T15:23:20;102076.47;;;37.77;20.37
42511;BME280;28141;51.120;17.114;2023-04-30T15:27:00;102080.84;;;37.93;20.37
42511;BME280;28141;51.120;17.114;2023-04-30T15:30:14;102072.20;;;38.08;20.13
42511;BME280;28141;51.120;17.114;2023-04-30T15:33:28;102075.34;;;38.30;20.20
42511;BME280;28141;51.120;17.114;2023-04-30T15:36:43;102066.67;;;38.46;20.03
42511;BME280;28141;51.120;17.114;2023-04-30T15:40:22;102075.23;;;38.64;19.82
42511;BME280;28141;51.120;17.114;2023-04-30T15:43:36;102074.59;;;38.91;19.76
42511;BME280;28141;51.120;17.114;2023-04-30T15:46:50;102081.43;;;39.09;19.58
42511;BME280;28141;51.120;17.114;2023-04-30T15:50:06;102067.77;;;39.30;19.20
42511;BME280;28141;51.120;17.114;2023-04-30T15:53:45;102076.44;;;39.57;19.18
42511;BME280;28141;51.120;17.114;2023-04-30T15:56:59;102070.88;;;39.66;18.98
42511;BME280;28141;51.120;17.114;2023-04-30T16:00:14;102070.77;;;39.71;19.04
42511;BME280;28141;51.120;17.114;2023-04-30T16:03:29;102076.21;;;39.86;18.97
42511;BME280;28141;51.120;17.114;2023-04-30T16:07:08;102068.13;;;39.93;18.79
42511;BME280;28141;51.120;17.114;2023-04-30T16:10:22;102068.46;;;40.05;18.58
42511;BME280;28141;51.120;17.114;2023-04-30T16:13:36;102054.90;;;40.16;18.47
42511;BME280;28141;51.120;17.114;2023-04-30T16:16:50;102064.38;;;40.11;18.70
42511;BME280;28141;51.120;17.114;2023-04-30T16:20:30;102064.05;;;40.13;18.69
42511;BME280;28141;51.120;17.114;2023-04-30T16:23:44;102056.81;;;40.21;18.65
42511;BME280;28141;51.120;17.114;2023-04-30T16:27:00;102058.95;;;40.29;18.78
42511;BME280;28141;51.120;17.114;2023-04-30T16:30:14;102056.70;;;40.26;18.58
42511;BME280;28141;51.120;17.114;2023-04-30T16:33:53;102062.38;;;40.26;18.56
42511;BME280;28141;51.120;17.114;2023-04-30T16:37:08;102055.85;;;40.25;18.44
42511;BME280;28141;51.120;17.114;2023-04-30T16:40:22;102059.78;;;40.29;18.39
42511;BME280;28141;51.120;17.114;2023-04-30T16:43:35;102049.58;;;40.28;18.64
42511;BME280;28141;51.120;17.114;2023-04-30T16:47:14;102060.37;;;40.26;18.59
42511;BME280;28141;51.120;17.114;2023-04-30T16:50:30;102052.33;;;40.33;18.54
42511;BME280;28141;51.120;17.114;2023-04-30T16:53:44;102052.64;;;40.32;18.34
42511;BME280;28141;51.120;17.114;2023-04-30T16:56:58;102066.37;;;40.25;18.64
42511;BME280;28141;51.120;17.114;2023-04-30T17:00:37;102060.59;;;40.16;18.62
42511;BME280;28141;51.120;17.114;2023-04-30T17:03:51;102052.81;;;40.08;18.54
42511;BME280;28141;51.120;17.114;2023-04-30T17:07:05;102065.63;;;40.05;18.64
42511;BME280;28141;51.120;17.114;2023-04-30T17:10:20;102069.52;;;39.96;18.67
42511;BME280;28141;51.120;17.114;2023-04-30T17:13:59;102072.45;;;39.91;18.75
42511;BME280;28141;51.120;17.114;2023-04-30T17:17:13;102075.69;;;39.84;18.64
42511;BME280;28141;51.120;17.114;2023-04-30T17:20:27;102077.52;;;39.75;19.00
42511;BME280;28141;51.120;17.114;2023-04-30T17:23:41;102079.39;;;39.66;18.78
42511;BME280;28141;51.120;17.114;2023-04-30T17:27:20;102090.08;;;39.55;18.94
42511;BME280;28141;51.120;17.114;2023-04-30T17:30:35;102088.27;;;39.46;18.95
42511;BME280;28141;51.120;17.114;2023-04-30T17:33:50;102088.22;;;39.27;18.88
42511;BME280;28141;51.120;17.114;2023-04-30T17:37:04;102086.70;;;39.16;19.09
42511;BME280;28141;51.120;17.114;2023-04-30T17:40:46;102093.16;;;39.02;19.14
42511;BME280;28141;51.120;17.114;2023-04-30T17:44:00;102094.78;;;38.85;19.26
42511;BME280;28141;51.120;17.114;2023-04-30T17:47:18;102099.28;;;38.67;19.29
42511;BME280;28141;51.120;17.114;2023-04-30T17:50:32;102094.57;;;38.33;19.33
42511;BME280;28141;51.120;17.114;2023-04-30T17:54:10;102099.73;;;37.97;19.64
42511;BME280;28141;51.120;17.114;2023-04-30T17:57:24;102096.87;;;37.74;19.67
42511;BME280;28141;51.120;17.114;2023-04-30T18:00:40;102094.23;;;37.48;19.86
42511;BME280;28141;51.120;17.114;2023-04-30T18:03:58;102102.59;;;37.24;20.04